Time;durP1;ratioP1;P1;durP2;ratioP2;P2;SDS_P1;SDS_P2;PMS_P1;PMS_P2;Temp;Humidity;BMP_temperature;BMP_pressure;BME280_temperature;BME280_humidity;BME280_pressure;Samples;Min_cycle;Max_cycle;Signal;HPM_P1;HPM_P2
2021/07/08 00:00:55;;;;;;;2.63;2.43;;;16.50;99.90;;;;;;5048365;28;20469;-70
2021/07/08 00:03:24;;;;;;;4.67;2.17;;;16.50;99.90;;;;;;5048344;28;20487;-70
2021/07/08 00:05:50;;;;;;;4.73;2.50;;;16.50;99.90;;;;;;5048748;28;20492;-70
2021/07/08 00:08:17;;;;;;;5.60;2.57;;;16.50;99.90;;;;;;5048363;28;20483;-69
2021/07/08 00:10:46;;;;;;;2.60;2.40;;;16.50;99.90;;;;;;5048138;28;20464;-69
2021/07/08 00:13:15;;;;;;;3.23;2.40;;;16.50;99.90;;;;;;5048309;28;21037;-70
2021/07/08 00:15:42;;;;;;;2.47;2.03;;;16.40;99.90;;;;;;5048760;28;20459;-69
2021/07/08 00:18:10;;;;;;;2.13;1.93;;;16.40;99.90;;;;;;5048458;28;20495;-69
2021/07/08 00:20:40;;;;;;;5.27;2.60;;;16.50;99.90;;;;;;5048010;28;20463;-70
2021/07/08 00:23:07;;;;;;;2.43;2.23;;;16.50;99.90;;;;;;5048588;28;20958;-69
2021/07/08 00:25:36;;;;;;;4.53;1.90;;;16.50;99.90;;;;;;5048270;28;20459;-69
2021/07/08 00:28:06;;;;;;;2.33;2.10;;;16.50;99.90;;;;;;5048528;28;20459;-69
2021/07/08 00:30:33;;;;;;;2.33;2.00;;;16.50;99.90;;;;;;5047702;28;20985;-69
2021/07/08 00:32:59;;;;;;;2.67;2.13;;;16.50;99.90;;;;;;5048486;28;20463;-69
2021/07/08 00:35:26;;;;;;;3.20;2.27;;;16.50;99.90;;;;;;5048139;28;20474;-70
2021/07/08 00:37:54;;;;;;;4.57;2.60;;;16.50;99.90;;;;;;5052172;28;20470;-70
2021/07/08 00:40:21;;;;;;;2.57;2.37;;;16.50;99.90;;;;;;5051098;28;20483;-69
2021/07/08 00:42:48;;;;;;;3.50;2.50;;;16.50;99.90;;;;;;5052092;28;20466;-70
2021/07/08 00:45:17;;;;;;;3.77;2.43;;;16.50;99.90;;;;;;5051836;28;20455;-69
2021/07/08 00:47:44;;;;;;;3.20;2.20;;;16.50;99.90;;;;;;5051630;28;20965;-70
2021/07/08 00:50:13;;;;;;;2.37;2.17;;;16.50;99.90;;;;;;5051317;28;20459;-70
2021/07/08 00:52:40;;;;;;;3.30;2.50;;;16.50;99.90;;;;;;5051677;28;20467;-69
2021/07/08 00:55:10;;;;;;;3.40;2.43;;;16.50;99.90;;;;;;5051561;28;20475;-69
2021/07/08 00:57:40;;;;;;;4.80;2.73;;;16.50;99.90;;;;;;5051868;28;20471;-69
2021/07/08 01:00:08;;;;;;;3.27;2.50;;;16.50;99.90;;;;;;5050952;28;21064;-69
2021/07/08 01:02:35;;;;;;;2.70;2.27;;;16.50;99.90;;;;;;5051379;28;20484;-70
2021/07/08 01:05:02;;;;;;;2.40;1.90;;;16.50;99.90;;;;;;5051627;28;21009;-69
2021/07/08 01:07:29;;;;;;;2.90;2.50;;;16.50;99.90;;;;;;5051260;28;20464;-70
2021/07/08 01:09:55;;;;;;;2.73;2.50;;;16.50;99.90;;;;;;5050649;28;20471;-69
2021/07/08 01:12:23;;;;;;;3.00;2.10;;;16.50;99.90;;;;;;5051089;28;20467;-69
2021/07/08 01:14:50;;;;;;;2.50;2.30;;;16.50;99.90;;;;;;5051001;28;20486;-70
2021/07/08 01:17:17;;;;;;;3.40;2.20;;;16.50;99.90;;;;;;5051091;28;20815;-69
2021/07/08 01:19:45;;;;;;;2.90;2.60;;;16.50;99.90;;;;;;5050437;28;20998;-69
2021/07/08 01:22:13;;;;;;;3.00;2.70;;;16.50;99.90;;;;;;5051024;28;20463;-69
2021/07/08 01:24:39;;;;;;;2.90;2.20;;;16.50;99.90;;;;;;5050906;28;20483;-69
2021/07/08 01:27:08;;;;;;;2.67;2.10;;;16.50;99.90;;;;;;5051139;28;20464;-70
2021/07/08 01:29:35;;;;;;;2.80;2.60;;;16.50;99.90;;;;;;5050464;28;20955;-70
2021/07/08 01:32:02;;;;;;;3.10;2.80;;;16.50;99.90;;;;;;5050980;28;20467;-70
2021/07/08 01:34:28;;;;;;;4.00;2.70;;;16.50;99.90;;;;;;5050540;28;20502;-70
2021/07/08 01:36:55;;;;;;;5.73;2.57;;;16.50;99.90;;;;;;5050852;28;20470;-70
2021/07/08 01:39:23;;;;;;;4.63;2.20;;;16.50;99.90;;;;;;5049915;28;20998;-70
2021/07/08 01:41:50;;;;;;;3.40;2.90;;;16.40;99.90;;;;;;5050778;28;20975;-70
2021/07/08 01:44:17;;;;;;;2.53;2.33;;;16.40;99.90;;;;;;5050482;28;20506;-70
2021/07/08 01:46:44;;;;;;;4.10;2.00;;;16.40;99.90;;;;;;5050196;28;21052;-70
2021/07/08 01:49:11;;;;;;;2.33;2.13;;;16.40;99.90;;;;;;5050143;28;20463;-70
2021/07/08 01:51:38;;;;;;;4.20;2.50;;;16.40;99.90;;;;;;5050630;28;20471;-70
2021/07/08 01:54:08;;;;;;;3.47;3.17;;;16.40;99.90;;;;;;5050292;28;20482;-70
2021/07/08 01:56:37;;;;;;;2.80;2.60;;;16.40;99.90;;;;;;5050602;28;20467;-69
2021/07/08 01:59:04;;;;;;;2.80;2.10;;;16.40;99.90;;;;;;5050066;28;20483;-70
2021/07/08 02:01:30;;;;;;;3.90;2.63;;;16.40;99.90;;;;;;5049754;28;20993;-70
2021/07/08 02:03:57;;;;;;;6.50;3.60;;;16.40;99.90;;;;;;5050261;28;20484;-70
2021/07/08 02:06:24;;;;;;;2.97;2.50;;;16.40;99.90;;;;;;5050173;28;20467;-69
2021/07/08 02:08:51;;;;;;;3.13;2.83;;;16.40;99.90;;;;;;5050266;28;20463;-69
2021/07/08 02:11:18;;;;;;;3.73;3.10;;;16.50;99.90;;;;;;5049532;28;20467;-70
2021/07/08 02:13:46;;;;;;;4.37;3.23;;;16.50;99.90;;;;;;5050233;28;20871;-69
2021/07/08 02:16:13;;;;;;;3.40;3.10;;;16.50;99.90;;;;;;5049888;28;20459;-69
2021/07/08 02:18:41;;;;;;;5.30;3.00;;;16.50;99.90;;;;;;5050045;28;20466;-69
2021/07/08 02:21:10;;;;;;;3.63;2.97;;;16.50;99.90;;;;;;5049624;28;20452;-69
2021/07/08 02:23:37;;;;;;;3.07;2.77;;;16.50;99.90;;;;;;5049945;28;21039;-69
2021/07/08 02:26:05;;;;;;;2.93;2.70;;;16.50;99.90;;;;;;5050056;28;21017;-69
2021/07/08 02:28:32;;;;;;;3.83;2.47;;;16.50;99.90;;;;;;5050002;28;20463;-69
2021/07/08 02:31:00;;;;;;;3.23;2.67;;;16.50;99.90;;;;;;5050038;28;20463;-69
2021/07/08 02:33:27;;;;;;;2.80;2.50;;;16.50;99.90;;;;;;5049610;28;20487;-70
2021/07/08 02:35:55;;;;;;;2.63;2.43;;;16.50;99.90;;;;;;5123283;22;20491;-65
2021/07/08 02:38:21;;;;;;;3.00;2.80;;;16.40;99.90;;;;;;5049722;28;20466;-65
2021/07/08 02:40:48;;;;;;;3.00;2.50;;;16.50;99.90;;;;;;5049641;28;20483;-65
2021/07/08 02:43:15;;;;;;;4.00;2.77;;;16.50;99.90;;;;;;5049655;28;20852;-64
2021/07/08 02:45:44;;;;;;;8.00;2.90;;;16.40;99.90;;;;;;5050295;28;20822;-64
2021/07/08 02:48:14;;;;;;;3.83;3.00;;;16.40;99.90;;;;;;5049690;28;20464;-64
2021/07/08 02:50:42;;;;;;;3.03;2.73;;;16.40;99.90;;;;;;5049499;28;20951;-64
2021/07/08 02:53:10;;;;;;;2.77;2.57;;;16.40;99.90;;;;;;5049758;28;20478;-64
2021/07/08 02:55:37;;;;;;;3.30;3.00;;;16.40;99.90;;;;;;5050006;28;20468;-64
2021/07/08 02:58:04;;;;;;;3.17;2.87;;;16.40;99.90;;;;;;5049351;28;20455;-64
2021/07/08 03:00:31;;;;;;;3.30;2.30;;;16.30;99.90;;;;;;5048910;28;20490;-65
2021/07/08 03:02:58;;;;;;;2.70;2.50;;;16.40;99.90;;;;;;5049737;28;20474;-64
2021/07/08 03:05:27;;;;;;;4.93;2.90;;;16.30;99.90;;;;;;5049513;28;20521;-65
2021/07/08 03:07:54;;;;;;;5.40;2.70;;;16.30;99.90;;;;;;5049808;28;20463;-65
2021/07/08 03:10:24;;;;;;;4.20;2.37;;;16.30;99.90;;;;;;5048663;28;20470;-65
2021/07/08 03:12:52;;;;;;;2.00;1.83;;;16.30;99.90;;;;;;5049592;28;20459;-65
2021/07/08 03:15:19;;;;;;;7.67;2.70;;;16.30;99.90;;;;;;5049477;28;20521;-65
2021/07/08 03:17:46;;;;;;;3.53;2.90;;;16.30;99.90;;;;;;5049569;28;20466;-65
2021/07/08 03:20:16;;;;;;;3.57;3.27;;;16.30;99.90;;;;;;5048926;28;20569;-65
2021/07/08 03:22:45;;;;;;;4.50;2.50;;;16.30;99.90;;;;;;5049418;28;20486;-64
2021/07/08 03:25:13;;;;;;;4.77;2.93;;;16.30;99.90;;;;;;5049224;28;20486;-64
2021/07/08 03:27:40;;;;;;;3.67;2.70;;;16.30;99.90;;;;;;5049512;28;20846;-65
2021/07/08 03:30:10;;;;;;;3.70;2.50;;;16.30;99.90;;;;;;5048728;28;20451;-64
2021/07/08 03:32:37;;;;;;;3.90;2.70;;;16.30;99.90;;;;;;5049183;28;20464;-64
2021/07/08 03:35:04;;;;;;;4.77;2.67;;;16.20;99.90;;;;;;5037914;28;20501;-65
2021/07/08 03:37:31;;;;;;;4.00;2.80;;;16.20;99.90;;;;;;5029229;28;20459;-64
2021/07/08 03:40:00;;;;;;;4.27;2.43;;;16.20;99.90;;;;;;5028064;28;20487;-64
2021/07/08 03:42:27;;;;;;;2.67;2.40;;;16.20;99.90;;;;;;5029217;28;20486;-64
2021/07/08 03:44:54;;;;;;;2.27;2.07;;;16.30;99.90;;;;;;5028086;28;20648;-65
2021/07/08 03:47:21;;;;;;;3.53;2.40;;;16.20;99.90;;;;;;5029161;28;20869;-65
2021/07/08 03:49:48;;;;;;;5.50;2.87;;;16.20;99.90;;;;;;5028349;28;20469;-65
2021/07/08 03:52:14;;;;;;;4.77;2.57;;;16.20;99.90;;;;;;5028827;28;20974;-65
2021/07/08 03:54:41;;;;;;;1.90;1.80;;;16.20;99.90;;;;;;5027629;28;20546;-64
2021/07/08 03:57:09;;;;;;;3.90;2.93;;;16.20;99.90;;;;;;5035673;28;20455;-65
2021/07/08 03:59:37;;;;;;;3.13;2.53;;;16.20;99.90;;;;;;5029130;28;20487;-64
2021/07/08 04:02:04;;;;;;;6.90;3.07;;;16.20;99.90;;;;;;5025879;28;20496;-64
2021/07/08 04:04:31;;;;;;;3.47;3.17;;;16.20;99.90;;;;;;5019499;28;20547;-65
2021/07/08 04:06:57;;;;;;;3.43;3.10;;;16.20;99.90;;;;;;5016366;28;20875;-64
2021/07/08 04:09:24;;;;;;;3.90;3.00;;;16.20;99.90;;;;;;5017584;28;20460;-64
2021/07/08 04:11:51;;;;;;;3.90;3.03;;;16.20;99.90;;;;;;5021776;28;20900;-64
2021/07/08 04:14:19;;;;;;;4.60;2.50;;;16.20;99.90;;;;;;5019630;28;20512;-64
2021/07/08 04:16:45;;;;;;;3.50;3.20;;;16.20;99.90;;;;;;5022520;28;20457;-64
2021/07/08 04:19:12;;;;;;;3.97;3.30;;;16.20;99.90;;;;;;5019102;28;20456;-65
2021/07/08 04:21:39;;;;;;;3.13;2.70;;;16.30;99.90;;;;;;5021955;28;20479;-64
2021/07/08 04:24:06;;;;;;;3.00;2.70;;;16.30;99.90;;;;;;5020027;28;20477;-65
2021/07/08 04:26:33;;;;;;;3.30;2.70;;;16.30;99.90;;;;;;5025284;28;20543;-65
2021/07/08 04:29:02;;;;;;;8.83;3.13;;;16.30;99.90;;;;;;5031244;28;20505;-64
2021/07/08 04:31:31;;;;;;;3.43;3.13;;;16.30;99.90;;;;;;5030930;28;20884;-64
2021/07/08 04:33:57;;;;;;;3.27;2.97;;;16.30;99.90;;;;;;5029741;28;20480;-64
2021/07/08 04:36:24;;;;;;;4.60;3.20;;;16.30;99.90;;;;;;5031646;28;20876;-65
2021/07/08 04:38:53;;;;;;;3.40;3.10;;;16.30;99.90;;;;;;5031607;28;20456;-64
2021/07/08 04:41:20;;;;;;;4.27;2.67;;;16.40;99.90;;;;;;5031427;28;20502;-64
2021/07/08 04:43:47;;;;;;;3.77;2.80;;;16.40;99.90;;;;;;5031726;28;20637;-65
2021/07/08 04:46:14;;;;;;;4.13;3.50;;;16.40;99.90;;;;;;5031472;28;20468;-66
2021/07/08 04:48:43;;;;;;;3.43;3.13;;;16.40;99.90;;;;;;5031316;28;20456;-67
2021/07/08 04:51:09;;;;;;;3.73;3.43;;;16.30;99.90;;;;;;5030579;28;20460;-67
2021/07/08 04:53:37;;;;;;;4.13;3.73;;;16.30;99.90;;;;;;5031361;28;20868;-67
2021/07/08 04:56:04;;;;;;;4.87;4.00;;;16.40;99.90;;;;;;5031091;28;20465;-67
2021/07/08 04:58:30;;;;;;;4.97;3.77;;;16.30;99.90;;;;;;5031270;28;20464;-67
2021/07/08 05:00:57;;;;;;;6.47;3.60;;;16.40;99.90;;;;;;5030178;28;20495;-66
2021/07/08 05:03:24;;;;;;;4.47;3.47;;;16.40;99.90;;;;;;5031080;28;20487;-67
2021/07/08 05:05:52;;;;;;;4.20;3.80;;;16.40;99.90;;;;;;5031082;28;20468;-67
2021/07/08 05:08:19;;;;;;;7.23;3.93;;;16.40;99.90;;;;;;5031013;28;20464;-67
2021/07/08 05:10:45;;;;;;;3.97;3.67;;;16.40;99.90;;;;;;5030350;28;20456;-67
2021/07/08 05:13:12;;;;;;;4.07;3.77;;;16.50;99.90;;;;;;5030615;28;21063;-67
2021/07/08 05:15:39;;;;;;;6.07;3.77;;;16.50;99.90;;;;;;5030932;28;20879;-64
2021/07/08 05:18:05;;;;;;;7.07;3.80;;;16.50;99.90;;;;;;5030424;28;20468;-65
2021/07/08 05:20:33;;;;;;;4.43;4.03;;;16.50;99.90;;;;;;5030427;28;20484;-64
2021/07/08 05:23:02;;;;;;;6.33;3.80;;;16.50;99.90;;;;;;5029418;28;20930;-65
2021/07/08 05:25:30;;;;;;;5.50;4.13;;;16.50;99.90;;;;;;5031133;28;20526;-64
2021/07/08 05:27:57;;;;;;;4.30;3.90;;;16.50;99.90;;;;;;5030452;28;20964;-63
2021/07/08 05:30:24;;;;;;;5.33;4.67;;;16.50;99.90;;;;;;5030327;28;20518;-65
2021/07/08 05:32:50;;;;;;;6.10;3.97;;;16.50;99.90;;;;;;5030498;28;20522;-64
2021/07/08 05:35:17;;;;;;;4.07;3.50;;;16.50;99.90;;;;;;5030342;28;20567;-65
2021/07/08 05:37:44;;;;;;;4.40;4.00;;;16.50;99.90;;;;;;5030701;28;20963;-64
2021/07/08 05:40:12;;;;;;;5.33;4.67;;;16.60;99.90;;;;;;5029557;28;20488;-64
2021/07/08 05:42:39;;;;;;;6.40;4.57;;;16.60;99.90;;;;;;5030463;28;20472;-65
2021/07/08 05:45:07;;;;;;;5.03;4.10;;;16.60;99.90;;;;;;5029862;28;20484;-65
2021/07/08 05:47:34;;;;;;;4.23;3.83;;;16.60;99.90;;;;;;5030484;28;20885;-65
2021/07/08 05:50:00;;;;;;;7.83;4.40;;;16.60;99.90;;;;;;5029193;28;20471;-65
2021/07/08 05:52:28;;;;;;;4.00;3.70;;;16.60;99.90;;;;;;5030395;28;20868;-65
2021/07/08 05:54:55;;;;;;;5.10;3.60;;;16.60;99.90;;;;;;5030011;28;20484;-65
2021/07/08 05:57:23;;;;;;;4.53;3.70;;;16.60;99.90;;;;;;5029870;28;20461;-64
2021/07/08 05:59:50;;;;;;;4.13;3.53;;;16.60;99.90;;;;;;5029583;28;20468;-64
2021/07/08 06:02:17;;;;;;;4.07;3.30;;;16.60;99.90;;;;;;5029612;28;20511;-65
2021/07/08 06:04:43;;;;;;;3.70;3.30;;;16.60;99.90;;;;;;5030049;28;20491;-64
2021/07/08 06:07:10;;;;;;;4.00;3.60;;;16.60;99.90;;;;;;5029797;28;20464;-64
2021/07/08 06:09:37;;;;;;;3.83;3.53;;;16.60;99.90;;;;;;5029563;28;20467;-64
2021/07/08 06:12:04;;;;;;;3.47;2.87;;;16.50;99.90;;;;;;5029481;28;20476;-64
2021/07/08 06:14:32;;;;;;;3.10;2.90;;;16.50;99.90;;;;;;5029665;28;21034;-64
2021/07/08 06:16:59;;;;;;;3.37;2.73;;;16.60;99.90;;;;;;5029273;28;20464;-65
2021/07/08 06:19:26;;;;;;;4.10;3.23;;;16.60;99.90;;;;;;5029046;28;20464;-64
2021/07/08 06:21:53;;;;;;;3.10;2.77;;;16.60;99.90;;;;;;5029445;28;20497;-65
2021/07/08 06:24:20;;;;;;;3.33;3.00;;;16.70;99.90;;;;;;5029112;28;20487;-65
2021/07/08 06:26:47;;;;;;;2.90;2.70;;;16.70;99.90;;;;;;5029563;28;21070;-64
2021/07/08 06:29:14;;;;;;;3.60;2.63;;;16.80;99.90;;;;;;5029013;28;20464;-65
2021/07/08 06:31:43;;;;;;;4.13;2.93;;;16.80;99.90;;;;;;5029412;28;20472;-65
2021/07/08 06:34:09;;;;;;;3.57;2.70;;;16.90;99.90;;;;;;5028965;28;20944;-64
2021/07/08 06:36:36;;;;;;;3.83;3.10;;;16.90;99.90;;;;;;5029113;28;20471;-64
2021/07/08 06:39:04;;;;;;;3.53;3.23;;;16.90;99.90;;;;;;5028695;28;20460;-64
2021/07/08 06:41:31;;;;;;;4.77;3.23;;;16.90;99.90;;;;;;5028787;28;20484;-65
2021/07/08 06:43:58;;;;;;;3.90;3.10;;;16.90;99.90;;;;;;5028766;28;21022;-65
2021/07/08 06:46:29;;;;;;;2.70;2.50;;;16.90;99.90;;;;;;5029169;28;20464;-65
2021/07/08 06:48:57;;;;;;;2.60;2.40;;;17.00;99.90;;;;;;5029047;28;21003;-65
2021/07/08 06:51:24;;;;;;;2.80;2.60;;;17.00;99.90;;;;;;5028797;28;20464;-65
2021/07/08 06:53:53;;;;;;;5.20;2.77;;;17.00;99.90;;;;;;5028674;28;20495;-65
2021/07/08 06:56:20;;;;;;;2.73;2.53;;;17.00;99.90;;;;;;5028499;28;20466;-64
2021/07/08 06:58:47;;;;;;;4.53;2.63;;;17.00;99.90;;;;;;5028714;28;20468;-64
2021/07/08 07:01:14;;;;;;;2.40;2.20;;;17.10;99.90;;;;;;5027659;28;20484;-65
2021/07/08 07:03:41;;;;;;;2.77;2.57;;;17.10;99.90;;;;;;5028772;28;20472;-64
2021/07/08 07:06:09;;;;;;;3.33;2.90;;;17.20;99.90;;;;;;5028134;28;20464;-64
2021/07/08 07:08:36;;;;;;;2.67;2.47;;;17.20;99.90;;;;;;5028858;28;20888;-65
2021/07/08 07:11:03;;;;;;;3.00;2.70;;;17.30;99.90;;;;;;5027474;28;20460;-65
2021/07/08 07:13:29;;;;;;;2.67;2.43;;;17.30;99.90;;;;;;5028597;28;20499;-64
2021/07/08 07:15:56;;;;;;;3.20;3.00;;;17.40;99.90;;;;;;5028091;28;20460;-65
2021/07/08 07:18:24;;;;;;;3.80;3.10;;;17.40;99.90;;;;;;5028557;28;20464;-65
2021/07/08 07:20:50;;;;;;;3.10;2.80;;;17.50;99.90;;;;;;5026983;28;20948;-64
2021/07/08 07:23:18;;;;;;;3.77;3.00;;;17.50;99.90;;;;;;5027815;28;20488;-64
2021/07/08 07:25:46;;;;;;;4.97;2.80;;;17.50;99.90;;;;;;5028462;28;20838;-65
2021/07/08 07:28:13;;;;;;;4.07;3.00;;;17.60;99.90;;;;;;5027915;28;20464;-65
2021/07/08 07:30:40;;;;;;;2.70;2.20;;;17.60;99.90;;;;;;5028028;28;20463;-64
2021/07/08 07:33:07;;;;;;;2.93;2.63;;;17.70;99.90;;;;;;5027917;28;20877;-65
2021/07/08 07:35:34;;;;;;;2.70;2.50;;;17.70;99.90;;;;;;5028541;28;20472;-65
2021/07/08 07:38:01;;;;;;;3.53;2.80;;;17.80;99.90;;;;;;5027606;28;20551;-64
2021/07/08 07:40:29;;;;;;;2.83;2.57;;;17.80;99.90;;;;;;5027720;28;20551;-64
2021/07/08 07:42:55;;;;;;;3.00;2.70;;;17.90;99.90;;;;;;5028289;28;20461;-65
2021/07/08 07:45:22;;;;;;;2.73;2.53;;;17.90;99.90;;;;;;5029715;28;20478;-64
2021/07/08 07:47:52;;;;;;;2.23;2.03;;;18.00;99.90;;;;;;5032233;28;20460;-64
2021/07/08 07:50:20;;;;;;;2.70;2.50;;;18.00;99.90;;;;;;5032057;28;20474;-65
2021/07/08 07:52:47;;;;;;;2.80;2.60;;;18.00;99.90;;;;;;5032324;28;20978;-64
2021/07/08 07:55:15;;;;;;;2.70;2.40;;;18.00;99.90;;;;;;5031876;28;20476;-64
2021/07/08 07:57:44;;;;;;;3.03;2.70;;;18.00;99.90;;;;;;5032249;28;21063;-65
2021/07/08 08:00:11;;;;;;;3.40;2.77;;;18.00;99.90;;;;;;5031199;28;20463;-64
2021/07/08 08:02:39;;;;;;;3.47;2.47;;;18.00;99.90;;;;;;5031851;28;20582;-65
2021/07/08 08:10:33;;;;;;;5.50;2.97;;;18.10;99.90;;;;;;5031623;28;20439;-64
2021/07/08 08:13:02;;;;;;;3.60;3.03;;;18.10;99.90;;;;;;5031488;28;20463;-64
2021/07/08 08:15:29;;;;;;;3.00;2.70;;;18.10;99.90;;;;;;5031674;28;20467;-64
2021/07/08 08:18:00;;;;;;;2.50;2.30;;;18.10;99.90;;;;;;5031608;28;20456;-64
2021/07/08 08:20:27;;;;;;;2.67;2.47;;;18.10;99.90;;;;;;5031193;28;20459;-65
2021/07/08 08:22:54;;;;;;;3.13;2.83;;;18.30;99.90;;;;;;5031287;28;21007;-64
2021/07/08 08:25:21;;;;;;;2.43;2.23;;;18.30;99.90;;;;;;5031328;28;20471;-65
2021/07/08 08:27:48;;;;;;;3.10;2.90;;;18.40;99.90;;;;;;5031692;28;20990;-64
2021/07/08 08:30:17;;;;;;;3.40;3.10;;;18.50;99.90;;;;;;5030899;28;20456;-64
2021/07/08 08:32:45;;;;;;;3.70;3.30;;;18.60;99.90;;;;;;5031398;28;20460;-65
2021/07/08 08:35:12;;;;;;;3.30;3.00;;;18.60;99.90;;;;;;5202691;22;20478;-68
2021/07/08 08:37:41;;;;;;;4.20;3.40;;;18.70;99.90;;;;;;5070626;28;20454;-68
2021/07/08 08:40:09;;;;;;;4.40;3.50;;;18.80;99.90;;;;;;5070916;28;20454;-68
2021/07/08 08:42:35;;;;;;;4.37;3.40;;;18.80;99.90;;;;;;5070790;28;20482;-68
2021/07/08 08:45:04;;;;;;;4.77;3.30;;;18.90;99.90;;;;;;5070882;28;20505;-68
2021/07/08 08:47:32;;;;;;;3.80;3.50;;;18.90;99.90;;;;;;5071033;28;20462;-68
2021/07/08 08:50:01;;;;;;;2.90;2.70;;;18.90;99.90;;;;;;5070420;28;20462;-67
2021/07/08 08:52:29;;;;;;;3.10;2.90;;;19.00;99.90;;;;;;5071168;28;20879;-68
2021/07/08 08:54:55;;;;;;;4.70;2.70;;;19.00;99.90;;;;;;5070505;28;20516;-68
2021/07/08 08:57:22;;;;;;;3.73;3.30;;;19.10;99.90;;;;;;5070089;28;20466;-68
2021/07/08 08:59:49;;;;;;;3.20;2.90;;;19.20;99.90;;;;;;5069883;28;20470;-68
2021/07/08 09:02:18;;;;;;;3.17;2.87;;;19.20;99.90;;;;;;5070559;28;21043;-67
2021/07/08 09:04:47;;;;;;;3.43;3.13;;;19.20;99.90;;;;;;5070266;28;20984;-68
2021/07/08 09:07:24;;;;;;;3.20;2.90;;;19.10;99.90;;;;;;5070866;28;20469;-67
2021/07/08 09:09:53;;;;;;;3.17;2.97;;;19.10;99.90;;;;;;5069931;28;20458;-68
2021/07/08 09:12:22;;;;;;;3.20;2.90;;;19.10;99.90;;;;;;5070560;28;20462;-68
2021/07/08 09:14:49;;;;;;;3.00;2.70;;;19.20;99.90;;;;;;5070390;28;20486;-67
2021/07/08 09:17:18;;;;;;;3.23;2.97;;;19.20;99.90;;;;;;5070493;28;20458;-68
2021/07/08 09:19:46;;;;;;;4.43;3.30;;;19.20;99.90;;;;;;5069805;28;20531;-68
2021/07/08 09:22:26;;;;;;;3.07;2.80;;;19.20;99.90;;;;;;5070002;28;21133;-68
2021/07/08 09:24:53;;;;;;;3.03;2.57;;;19.20;99.90;;;;;;5070041;28;20479;-68
2021/07/08 09:27:25;;;;;;;4.63;3.00;;;19.20;99.90;;;;;;5060395;28;20852;-68
2021/07/08 09:29:52;;;;;;;2.90;2.60;;;19.30;99.90;;;;;;5028872;28;20602;-68
2021/07/08 09:32:21;;;;;;;2.67;2.47;;;19.20;99.90;;;;;;5029704;28;20490;-68
2021/07/08 09:34:50;;;;;;;3.20;3.00;;;19.20;99.90;;;;;;5029263;28;20480;-68
2021/07/08 09:37:18;;;;;;;3.20;2.93;;;19.20;99.90;;;;;;5029497;28;20463;-68
2021/07/08 09:39:47;;;;;;;3.40;2.67;;;19.20;99.90;;;;;;5028784;28;20521;-68
2021/07/08 09:42:16;;;;;;;3.23;2.90;;;19.20;99.90;;;;;;5029188;28;20507;-68
2021/07/08 09:44:43;;;;;;;3.07;2.77;;;19.20;99.90;;;;;;5028926;28;20476;-68
2021/07/08 09:47:21;;;;;;;2.83;2.63;;;19.20;99.90;;;;;;5047952;28;20467;-68
2021/07/08 09:49:49;;;;;;;2.87;2.67;;;19.20;99.90;;;;;;5048096;28;20456;-68
2021/07/08 09:52:16;;;;;;;3.53;2.37;;;19.30;99.90;;;;;;5049498;28;20456;-68
2021/07/08 09:57:40;;;;;;;3.03;2.57;;;19.20;99.90;;;;;;5045086;28;20444;-68
2021/07/08 10:00:33;;;;;;;2.43;2.23;;;19.20;99.90;;;;;;5048328;28;20458;-68
2021/07/08 10:03:01;;;;;;;2.57;2.37;;;19.20;99.90;;;;;;5049249;28;20498;-68
2021/07/08 10:05:31;;;;;;;3.40;2.47;;;19.10;99.90;;;;;;5049810;28;20471;-68
2021/07/08 10:07:58;;;;;;;3.70;2.90;;;19.10;99.90;;;;;;5049062;28;20858;-68
2021/07/08 10:10:25;;;;;;;2.83;2.53;;;19.10;99.90;;;;;;5049165;28;20841;-68
2021/07/08 10:12:52;;;;;;;3.10;2.30;;;19.20;99.90;;;;;;5048881;28;20471;-68
2021/07/08 10:15:19;;;;;;;2.93;2.73;;;19.20;99.90;;;;;;5049567;28;20958;-67
2021/07/08 10:17:45;;;;;;;2.23;2.03;;;19.30;99.90;;;;;;5049235;28;20474;-67
2021/07/08 10:20:15;;;;;;;2.10;1.90;;;19.30;99.90;;;;;;5048710;28;20822;-68
2021/07/08 10:22:43;;;;;;;2.67;2.37;;;19.30;99.90;;;;;;5048712;28;20483;-68
2021/07/08 10:25:12;;;;;;;2.37;2.17;;;19.40;99.90;;;;;;5049226;28;21005;-68
2021/07/08 10:27:40;;;;;;;2.70;2.50;;;19.40;99.90;;;;;;5049016;28;20839;-67
2021/07/08 10:30:08;;;;;;;2.50;2.30;;;19.50;99.90;;;;;;5048610;28;20828;-68
2021/07/08 10:32:35;;;;;;;2.23;2.00;;;19.60;99.90;;;;;;5049090;28;20455;-68
2021/07/08 10:35:01;;;;;;;2.43;1.90;;;19.60;99.90;;;;;;5048887;28;20849;-67
2021/07/08 10:37:31;;;;;;;1.90;1.80;;;19.60;99.90;;;;;;5048866;28;20459;-68
2021/07/08 10:40:00;;;;;;;3.00;2.17;;;19.60;99.90;;;;;;5048417;28;20470;-68
2021/07/08 10:42:44;;;;;;;1.87;1.60;;;19.50;99.90;;;;;;5048845;28;20493;-68
2021/07/08 10:45:43;;;;;;;2.90;1.83;;;19.50;99.90;;;;;;5048945;28;20490;-68
2021/07/08 10:48:11;;;;;;;1.80;1.70;;;19.60;99.90;;;;;;5048615;28;21030;-68
2021/07/08 10:50:40;;;;;;;1.83;1.67;;;19.60;99.90;;;;;;5048045;28;20539;-67
2021/07/08 10:53:18;;;;;;;1.90;1.53;;;19.60;99.90;;;;;;5048006;28;20448;-67
2021/07/08 10:55:48;;;;;;;1.60;1.50;;;19.60;99.90;;;;;;5048166;28;20466;-68
2021/07/08 10:58:51;;;;;;;1.63;1.53;;;19.70;99.90;;;;;;5048804;28;20459;-68
2021/07/08 11:01:42;;;;;;;1.50;1.40;;;19.70;99.90;;;;;;5047754;28;20516;-68
2021/07/08 11:04:09;;;;;;;1.90;1.80;;;19.70;99.90;;;;;;5048658;28;20510;-68
2021/07/08 11:06:37;;;;;;;1.67;1.50;;;19.60;99.90;;;;;;5048201;28;20506;-68
2021/07/08 11:09:06;;;;;;;1.90;1.70;;;19.60;99.90;;;;;;5048706;28;20885;-67
2021/07/08 11:12:03;;;;;;;3.00;1.87;;;19.60;99.90;;;;;;5048182;28;20819;-67
2021/07/08 11:14:39;;;;;;;1.83;1.63;;;19.50;99.90;;;;;;5048517;28;20533;-68
2021/07/08 11:17:17;;;;;;;1.73;1.63;;;19.50;99.90;;;;;;5048412;28;20461;-68
2021/07/08 11:19:50;;;;;;;1.77;1.40;;;19.60;99.90;;;;;;5047296;28;20463;-68
2021/07/08 11:22:34;;;;;;;1.77;1.67;;;19.60;99.90;;;;;;5048428;28;20566;-67
2021/07/08 11:25:01;;;;;;;1.43;1.33;;;19.60;99.90;;;;;;5047936;28;20487;-67
2021/07/08 11:27:37;;;;;;;1.60;1.50;;;19.60;99.90;;;;;;5048566;28;20468;-67
2021/07/08 11:30:25;;;;;;;2.53;1.63;;;19.70;99.90;;;;;;5047445;28;20463;-67
2021/07/08 11:32:54;;;;;;;1.53;1.43;;;19.70;99.90;;;;;;5048256;28;20499;-68
2021/07/08 11:35:29;;;;;;;1.63;1.53;;;19.70;99.90;;;;;;5048131;28;20478;-67
2021/07/08 11:37:59;;;;;;;1.40;1.30;;;19.80;99.90;;;;;;5047997;28;20504;-68
2021/07/08 11:40:27;;;;;;;1.87;1.67;;;19.80;99.90;;;;;;5047824;28;20455;-68
2021/07/08 11:42:55;;;;;;;1.57;1.47;;;19.90;99.90;;;;;;5047589;28;20494;-68
2021/07/08 11:45:25;;;;;;;1.87;1.67;;;19.90;99.90;;;;;;5048231;28;20970;-67
2021/07/08 11:47:53;;;;;;;1.50;1.40;;;19.80;99.90;;;;;;5047793;28;20474;-67
2021/07/08 11:50:22;;;;;;;1.90;1.70;;;19.80;99.90;;;;;;5047807;28;20455;-67
2021/07/08 11:52:50;;;;;;;1.80;1.70;;;19.80;99.90;;;;;;5047789;28;20462;-68
2021/07/08 11:55:18;;;;;;;1.80;1.67;;;19.80;99.90;;;;;;5048524;28;20466;-68
2021/07/08 11:57:58;;;;;;;1.90;1.70;;;19.80;99.90;;;;;;5048583;28;20467;-68
2021/07/08 12:00:34;;;;;;;1.73;1.60;;;19.80;99.90;;;;;;5048393;28;20463;-68
2021/07/08 12:03:02;;;;;;;1.90;1.80;;;19.80;99.90;;;;;;5048291;28;20486;-67
2021/07/08 12:05:29;;;;;;;1.67;1.57;;;19.90;99.90;;;;;;5048483;28;20460;-68
2021/07/08 12:08:00;;;;;;;2.10;1.90;;;19.90;99.90;;;;;;5048464;28;20570;-67
2021/07/08 12:10:31;;;;;;;2.23;1.90;;;19.90;99.90;;;;;;5048028;28;20463;-67
2021/07/08 12:12:59;;;;;;;2.40;2.20;;;19.90;99.90;;;;;;5048268;28;20459;-67
2021/07/08 12:15:26;;;;;;;1.93;1.73;;;20.00;99.90;;;;;;5048683;28;20825;-68
2021/07/08 12:17:56;;;;;;;1.60;1.50;;;20.00;99.90;;;;;;5048039;28;20460;-68
2021/07/08 12:20:23;;;;;;;2.23;1.87;;;20.00;99.90;;;;;;5047999;28;21219;-67
2021/07/08 12:22:58;;;;;;;2.17;1.83;;;20.10;99.90;;;;;;5047659;28;20487;-68
2021/07/08 12:25:27;;;;;;;2.07;1.97;;;20.20;99.90;;;;;;5048464;28;20486;-68
2021/07/08 12:27:56;;;;;;;1.90;1.80;;;20.20;99.90;;;;;;5047918;28;20958;-68
2021/07/08 12:30:25;;;;;;;1.80;1.70;;;20.20;99.90;;;;;;5048047;28;20819;-67
2021/07/08 12:33:09;;;;;;;2.53;2.20;;;20.30;99.90;;;;;;5051827;28;20463;-68
2021/07/08 12:35:46;;;;;;;2.40;2.03;;;20.40;99.90;;;;;;5051922;28;20497;-68
2021/07/08 12:38:14;;;;;;;2.20;2.00;;;20.50;99.90;;;;;;5051991;28;20470;-67
2021/07/08 12:40:43;;;;;;;2.20;2.00;;;20.50;99.90;;;;;;5050988;28;20471;-67
2021/07/08 12:43:12;;;;;;;2.07;1.97;;;20.50;99.90;;;;;;5051975;28;20832;-68
2021/07/08 12:45:41;;;;;;;2.30;2.10;;;20.50;99.90;;;;;;5051541;28;20463;-67
2021/07/08 12:48:11;;;;;;;2.20;2.00;;;20.50;99.90;;;;;;5051798;28;20467;-67
2021/07/08 12:50:40;;;;;;;3.20;2.53;;;20.60;99.90;;;;;;5051238;28;20467;-68
2021/07/08 12:53:10;;;;;;;2.43;2.07;;;20.50;99.90;;;;;;5051331;28;20463;-68
2021/07/08 12:55:40;;;;;;;5.33;2.70;;;20.50;99.90;;;;;;5051434;28;20491;-68
2021/07/08 12:58:09;;;;;;;2.27;2.03;;;20.40;99.90;;;;;;5051494;28;20470;-68
2021/07/08 13:00:37;;;;;;;4.23;2.80;;;20.30;99.90;;;;;;5050862;28;20467;-68
2021/07/08 13:03:05;;;;;;;6.23;3.73;;;20.20;99.90;;;;;;5051006;28;20492;-67